Time;durP1;ratioP1;P1;durP2;ratioP2;P2;SDS_P1;SDS_P2;PMS_P1;PMS_P2;Temp;Humidity;BMP_temperature;BMP_pressure;BME280_temperature;BME280_humidity;BME280_pressure;Samples;Min_cycle;Max_cycle;Signal;HPM_P1;HPM_P2
2021/06/08 00:00:19;;;;;;;3.90;3.50;;;;;;;;;;5141120;27;20401;-69
2021/06/08 00:02:46;;;;;;;5.13;4.07;;;;;;;;;;5127245;27;20225;-69
2021/06/08 00:05:14;;;;;;;3.97;3.60;;;;;;;;;;5139144;27;20205;-68
2021/06/08 00:07:41;;;;;;;4.10;3.70;;;;;;;;;;5140933;27;20211;-68
2021/06/08 00:10:10;;;;;;;4.77;3.80;;;;;;;;;;5140488;27;20252;-69
2021/06/08 00:12:39;;;;;;;4.67;4.10;;;;;;;;;;5140568;27;20224;-68
2021/06/08 00:15:08;;;;;;;5.20;3.43;;;;;;;;;;5132288;27;20209;-68
2021/06/08 00:17:35;;;;;;;6.37;4.13;;;;;;;;;;5140143;27;20201;-69
2021/06/08 00:20:03;;;;;;;5.43;4.03;;;;;;;;;;5139523;27;20236;-68
2021/06/08 00:22:31;;;;;;;3.93;3.57;;;;;;;;;;5132757;27;20217;-69
2021/06/08 00:24:58;;;;;;;5.10;4.07;;;;;;;;;;5137649;27;20225;-68
2021/06/08 00:27:26;;;;;;;4.37;4.00;;;;;;;;;;5139944;27;20203;-68
2021/06/08 00:29:55;;;;;;;4.27;3.60;;;;;;;;;;5140093;27;20253;-69
2021/06/08 00:32:22;;;;;;;5.47;4.00;;;;;;;;;;5139970;27;20732;-69
2021/06/08 00:34:50;;;;;;;5.27;3.80;;;;;;;;;;5139732;27;20200;-69
2021/06/08 00:37:17;;;;;;;4.53;3.70;;;;;;;;;;5140497;27;20276;-69
2021/06/08 00:39:45;;;;;;;4.00;3.60;;;;;;;;;;5140204;27;20678;-69
2021/06/08 00:42:12;;;;;;;6.27;3.57;;;;;;;;;;5140343;27;20234;-69
2021/06/08 00:44:40;;;;;;;4.23;3.50;;;;;;;;;;5140331;27;20208;-69
2021/06/08 00:47:09;;;;;;;4.07;3.53;;;;;;;;;;5140069;27;20212;-69
2021/06/08 00:49:36;;;;;;;3.93;3.63;;;;;;;;;;5126705;27;20232;-69
2021/06/08 00:52:04;;;;;;;4.70;3.93;;;;;;;;;;5139966;27;20239;-69
2021/06/08 00:54:32;;;;;;;4.30;3.67;;;;;;;;;;5139829;27;20207;-69
2021/06/08 00:56:59;;;;;;;4.97;3.40;;;;;;;;;;5139933;27;20207;-69
2021/06/08 00:59:26;;;;;;;4.27;3.87;;;;;;;;;;5137270;27;20223;-69
2021/06/08 01:01:54;;;;;;;4.00;3.70;;;;;;;;;;5139599;27;20590;-69
2021/06/08 01:04:23;;;;;;;4.80;3.77;;;;;;;;;;5139612;27;20210;-69
2021/06/08 01:06:51;;;;;;;4.80;3.93;;;;;;;;;;5139801;27;20204;-69
2021/06/08 01:09:18;;;;;;;4.70;4.00;;;;;;;;;;5126028;27;20204;-69
2021/06/08 01:11:45;;;;;;;5.13;3.93;;;;;;;;;;5138824;27;20311;-69
2021/06/08 01:14:13;;;;;;;4.03;3.63;;;;;;;;;;5139314;27;20560;-69
2021/06/08 01:16:41;;;;;;;4.10;3.63;;;;;;;;;;5139680;27;20204;-69
2021/06/08 01:19:08;;;;;;;4.33;3.93;;;;;;;;;;5138242;27;20234;-69
2021/06/08 01:21:37;;;;;;;4.13;3.73;;;;;;;;;;5139278;27;20228;-69
2021/06/08 01:24:05;;;;;;;4.87;4.17;;;;;;;;;;5138935;27;20235;-69
2021/06/08 01:26:33;;;;;;;4.20;3.90;;;;;;;;;;5139032;27;20299;-69
2021/06/08 01:29:01;;;;;;;4.70;4.20;;;;;;;;;;5137110;27;20200;-69
2021/06/08 01:31:30;;;;;;;4.17;3.80;;;;;;;;;;5138738;27;20250;-69
2021/06/08 01:33:58;;;;;;;7.17;4.10;;;;;;;;;;5138475;27;20204;-69
2021/06/08 01:36:28;;;;;;;4.43;4.00;;;;;;;;;;5139376;27;20689;-69
2021/06/08 01:38:57;;;;;;;3.93;3.57;;;;;;;;;;5127366;27;20218;-69
2021/06/08 01:41:25;;;;;;;4.40;4.00;;;;;;;;;;5138506;27;20686;-69
2021/06/08 01:43:53;;;;;;;5.53;4.10;;;;;;;;;;5138620;27;20211;-69
2021/06/08 01:46:21;;;;;;;4.40;4.00;;;;;;;;;;5137935;27;20208;-69
2021/06/08 01:48:49;;;;;;;4.40;3.90;;;;;;;;;;5138134;27;20238;-69
2021/06/08 01:51:21;;;;;;;4.97;3.93;;;;;;;;;;5138200;27;20706;-69
2021/06/08 01:53:53;;;;;;;6.50;4.70;;;;;;;;;;5135662;27;20287;-69
2021/06/08 01:56:23;;;;;;;4.80;4.37;;;;;;;;;;5138987;27;20204;-69
2021/06/08 01:58:55;;;;;;;4.77;4.07;;;;;;;;;;5138782;27;20224;-69
2021/06/08 02:01:24;;;;;;;4.90;4.40;;;;;;;;;;5138738;27;20590;-69
2021/06/08 02:03:55;;;;;;;4.60;4.10;;;;;;;;;;5122775;27;20287;-69
2021/06/08 02:06:29;;;;;;;5.93;4.23;;;;;;;;;;5132312;28;20207;-69
2021/06/08 02:09:00;;;;;;;5.77;4.00;;;;;;;;;;5139023;28;20213;-69
2021/06/08 02:11:35;;;;;;;5.57;4.60;;;;;;;;;;5137873;28;20216;-69
2021/06/08 02:14:05;;;;;;;6.63;4.30;;;;;;;;;;5135443;28;20273;-69
2021/06/08 02:16:35;;;;;;;4.37;3.97;;;;;;;;;;5138878;28;20275;-69
2021/06/08 02:19:03;;;;;;;4.63;4.20;;;;;;;;;;5138426;28;20215;-69
2021/06/08 02:21:32;;;;;;;6.00;4.50;;;;;;;;;;5138487;28;20621;-69
2021/06/08 02:24:02;;;;;;;6.33;3.80;;;;;;;;;;5138711;28;20208;-69
2021/06/08 02:26:32;;;;;;;4.87;4.40;;;;;;;;;;5138318;28;20230;-69
2021/06/08 02:29:01;;;;;;;4.73;4.10;;;;;;;;;;5138514;28;20612;-69
2021/06/08 02:31:28;;;;;;;4.83;3.97;;;;;;;;;;5138626;28;20323;-69
2021/06/08 02:33:56;;;;;;;6.77;4.40;;;;;;;;;;5138386;28;20215;-69
2021/06/08 02:36:24;;;;;;;4.37;3.67;;;;;;;;;;5138079;28;20203;-69
2021/06/08 02:38:53;;;;;;;4.77;4.07;;;;;;;;;;5138272;28;20291;-69
2021/06/08 02:41:22;;;;;;;6.30;3.83;;;;;;;;;;5138000;28;20220;-69
2021/06/08 02:43:51;;;;;;;4.50;4.10;;;;;;;;;;5138214;28;20220;-69
2021/06/08 02:46:19;;;;;;;4.83;4.33;;;;;;;;;;5138281;28;20210;-69
2021/06/08 02:48:47;;;;;;;4.43;4.03;;;;;;;;;;5137284;28;20253;-69
2021/06/08 02:51:15;;;;;;;5.87;4.30;;;;;;;;;;5138135;28;20299;-70
2021/06/08 02:53:43;;;;;;;4.83;4.20;;;;;;;;;;5137983;28;20208;-69
2021/06/08 02:56:10;;;;;;;7.77;4.23;;;;;;;;;;5137919;28;20208;-69
2021/06/08 02:58:38;;;;;;;5.90;4.43;;;;;;;;;;5140310;27;20694;-69
2021/06/08 03:01:09;;;;;;;4.40;4.00;;;;;;;;;;5142285;27;20200;-69
2021/06/08 03:03:37;;;;;;;4.23;3.83;;;;;;;;;;5142511;27;20208;-69
2021/06/08 03:06:05;;;;;;;4.47;4.00;;;;;;;;;;5132723;27;20715;-69
2021/06/08 03:08:35;;;;;;;5.07;3.73;;;;;;;;;;5142363;27;20267;-70
2021/06/08 03:11:04;;;;;;;5.47;3.87;;;;;;;;;;5137596;27;20192;-69
2021/06/08 03:13:32;;;;;;;5.37;4.30;;;;;;;;;;5140302;27;20755;-70
2021/06/08 03:16:01;;;;;;;4.33;3.70;;;;;;;;;;5139094;27;20555;-70
2021/06/08 03:18:31;;;;;;;4.50;4.00;;;;;;;;;;5141371;27;20738;-70
2021/06/08 03:21:00;;;;;;;4.17;3.77;;;;;;;;;;5137927;27;20311;-70
2021/06/08 03:23:29;;;;;;;6.97;4.17;;;;;;;;;;5140290;27;20219;-70
2021/06/08 03:25:59;;;;;;;5.93;4.77;;;;;;;;;;5140901;27;20197;-70
2021/06/08 03:28:27;;;;;;;4.43;3.90;;;;;;;;;;5139605;27;20683;-70
2021/06/08 03:30:55;;;;;;;6.00;4.03;;;;;;;;;;5139250;27;20252;-70
2021/06/08 03:33:23;;;;;;;6.17;4.30;;;;;;;;;;5140689;27;20697;-70
2021/06/08 03:35:53;;;;;;;4.90;4.37;;;;;;;;;;5140405;27;20224;-70
2021/06/08 03:38:21;;;;;;;4.93;4.27;;;;;;;;;;5140356;27;20196;-70
2021/06/08 03:40:49;;;;;;;7.17;4.80;;;;;;;;;;5139842;27;20714;-70
2021/06/08 03:43:17;;;;;;;5.03;4.17;;;;;;;;;;5139408;27;20216;-70
2021/06/08 03:45:46;;;;;;;5.90;4.50;;;;;;;;;;5139148;27;20661;-70
2021/06/08 03:48:15;;;;;;;5.60;5.00;;;;;;;;;;5141139;27;20204;-70
2021/06/08 03:50:43;;;;;;;4.77;4.37;;;;;;;;;;5140308;27;20208;-70
2021/06/08 03:53:12;;;;;;;7.37;4.07;;;;;;;;;;5141297;27;20227;-70
2021/06/08 03:55:39;;;;;;;4.90;4.40;;;;;;;;;;5139882;27;20208;-70
2021/06/08 03:58:11;;;;;;;6.77;4.70;;;;;;;;;;5141335;27;20293;-70
2021/06/08 04:00:39;;;;;;;5.50;4.60;;;;;;;;;;5138990;27;20586;-70
2021/06/08 04:03:09;;;;;;;7.90;4.83;;;;;;;;;;5131081;27;20256;-70
2021/06/08 04:05:37;;;;;;;5.33;4.83;;;;;;;;;;5127938;27;20203;-70
2021/06/08 04:08:05;;;;;;;4.90;4.43;;;;;;;;;;5127759;27;20208;-69
2021/06/08 04:10:34;;;;;;;6.27;4.50;;;;;;;;;;5137225;27;20280;-70
2021/06/08 04:13:02;;;;;;;6.30;4.73;;;;;;;;;;5129976;27;20347;-71
2021/06/08 04:15:29;;;;;;;4.77;4.37;;;;;;;;;;5138087;27;20298;-72
2021/06/08 04:17:57;;;;;;;6.53;4.37;;;;;;;;;;5140819;27;20214;-70
2021/06/08 04:20:26;;;;;;;5.17;4.67;;;;;;;;;;5139921;27;20316;-70
2021/06/08 04:22:55;;;;;;;8.90;5.23;;;;;;;;;;5140567;27;20224;-70
2021/06/08 04:25:23;;;;;;;6.00;4.93;;;;;;;;;;5136434;27;20202;-70
2021/06/08 04:27:52;;;;;;;7.27;5.10;;;;;;;;;;5140592;27;20232;-71
2021/06/08 04:30:20;;;;;;;5.77;4.53;;;;;;;;;;5140253;27;20220;-70
2021/06/08 04:32:48;;;;;;;5.57;5.07;;;;;;;;;;5139899;27;20591;-71
2021/06/08 04:35:16;;;;;;;5.53;4.93;;;;;;;;;;5140231;27;20299;-71
2021/06/08 04:37:43;;;;;;;8.63;5.30;;;;;;;;;;5140076;27;20671;-71
2021/06/08 04:40:12;;;;;;;6.07;5.00;;;;;;;;;;5140064;27;20733;-70
2021/06/08 04:42:42;;;;;;;6.77;4.83;;;;;;;;;;5140052;27;20224;-71
2021/06/08 04:45:11;;;;;;;7.80;5.33;;;;;;;;;;5140341;27;20208;-71
2021/06/08 04:47:39;;;;;;;12.87;5.83;;;;;;;;;;5139679;27;20670;-71
2021/06/08 04:50:07;;;;;;;7.03;5.00;;;;;;;;;;5140184;27;20210;-71
2021/06/08 04:52:35;;;;;;;5.70;5.00;;;;;;;;;;5139680;27;20308;-71
2021/06/08 04:55:03;;;;;;;5.40;4.63;;;;;;;;;;5139983;27;20211;-71
2021/06/08 04:57:30;;;;;;;6.17;4.73;;;;;;;;;;5140041;27;20205;-70
2021/06/08 05:00:01;;;;;;;6.03;5.40;;;;;;;;;;5134169;27;20226;-70
2021/06/08 05:02:34;;;;;;;5.37;4.83;;;;;;;;;;5131666;27;20284;-71
2021/06/08 05:05:02;;;;;;;9.43;5.53;;;;;;;;;;5133005;27;20192;-71
2021/06/08 05:07:31;;;;;;;4.87;4.47;;;;;;;;;;5131982;27;20201;-71
2021/06/08 05:09:59;;;;;;;5.60;4.70;;;;;;;;;;5130764;27;20678;-71
2021/06/08 05:12:27;;;;;;;6.27;4.80;;;;;;;;;;5130824;27;20306;-71
2021/06/08 05:14:56;;;;;;;7.60;4.53;;;;;;;;;;5132459;27;20200;-71
2021/06/08 05:17:25;;;;;;;8.23;5.23;;;;;;;;;;5132926;27;20200;-72
2021/06/08 05:19:54;;;;;;;7.67;4.80;;;;;;;;;;5133021;27;20231;-72
2021/06/08 05:22:22;;;;;;;9.37;5.20;;;;;;;;;;5135557;27;20306;-72
2021/06/08 05:24:50;;;;;;;8.00;5.73;;;;;;;;;;5138446;27;20232;-69
2021/06/08 05:27:18;;;;;;;5.10;4.53;;;;;;;;;;5137878;27;20684;-69
2021/06/08 05:29:46;;;;;;;5.77;5.10;;;;;;;;;;5137300;27;20322;-69
2021/06/08 05:32:14;;;;;;;9.20;4.87;;;;;;;;;;5138275;27;20224;-69
2021/06/08 05:34:44;;;;;;;7.13;4.83;;;;;;;;;;5136295;27;20211;-68
2021/06/08 05:37:14;;;;;;;5.20;4.70;;;;;;;;;;5138701;27;20210;-69
2021/06/08 05:39:43;;;;;;;7.70;5.60;;;;;;;;;;5136855;27;20211;-69
2021/06/08 05:42:11;;;;;;;7.90;5.83;;;;;;;;;;5138401;27;20348;-68
2021/06/08 05:44:39;;;;;;;7.40;5.40;;;;;;;;;;5129900;27;20251;-68
2021/06/08 05:47:07;;;;;;;10.20;5.97;;;;;;;;;;5138380;27;20204;-68
2021/06/08 05:49:37;;;;;;;7.10;5.70;;;;;;;;;;5137693;27;20200;-68
2021/06/08 05:52:04;;;;;;;9.27;5.87;;;;;;;;;;5138421;27;20216;-68
2021/06/08 05:54:33;;;;;;;7.30;5.67;;;;;;;;;;5138731;27;20547;-69
2021/06/08 05:57:02;;;;;;;6.07;5.50;;;;;;;;;;5137248;27;20206;-72
2021/06/08 05:59:29;;;;;;;6.50;5.37;;;;;;;;;;5138139;27;20359;-71
2021/06/08 06:01:57;;;;;;;6.73;5.00;;;;;;;;;;5138419;27;20682;-71
2021/06/08 06:04:25;;;;;;;9.20;5.47;;;;;;;;;;5136193;27;20671;-71
2021/06/08 06:06:53;;;;;;;8.33;5.50;;;;;;;;;;5138482;27;20200;-70
2021/06/08 06:09:22;;;;;;;5.53;4.97;;;;;;;;;;5138198;28;20769;-71
2021/06/08 06:11:53;;;;;;;7.07;5.40;;;;;;;;;;5122092;28;20223;-71
2021/06/08 06:14:21;;;;;;;6.73;5.67;;;;;;;;;;5132561;28;20212;-71
2021/06/08 06:16:52;;;;;;;6.37;5.40;;;;;;;;;;5138383;28;20216;-72
2021/06/08 06:19:21;;;;;;;6.03;4.90;;;;;;;;;;5135475;28;20204;-73
2021/06/08 06:21:49;;;;;;;7.50;5.67;;;;;;;;;;5137846;28;20232;-71
2021/06/08 06:24:17;;;;;;;7.03;6.10;;;;;;;;;;5137193;28;20204;-71
2021/06/08 06:26:45;;;;;;;6.47;5.80;;;;;;;;;;5136527;28;20279;-71
2021/06/08 06:29:15;;;;;;;8.13;6.20;;;;;;;;;;5136089;28;20211;-71
2021/06/08 06:31:45;;;;;;;8.53;5.77;;;;;;;;;;5138222;27;20652;-71
2021/06/08 06:34:13;;;;;;;8.57;5.87;;;;;;;;;;5139203;27;20196;-71
2021/06/08 06:36:42;;;;;;;8.27;5.90;;;;;;;;;;5142767;27;20204;-71
2021/06/08 06:39:12;;;;;;;7.23;4.90;;;;;;;;;;5141474;27;20206;-71
2021/06/08 06:41:41;;;;;;;6.33;5.60;;;;;;;;;;5140935;27;20232;-71
2021/06/08 06:44:09;;;;;;;5.87;5.27;;;;;;;;;;5142471;27;20569;-71
2021/06/08 06:46:38;;;;;;;8.17;6.03;;;;;;;;;;5141798;27;20208;-72
2021/06/08 06:49:06;;;;;;;6.80;5.50;;;;;;;;;;5141332;27;20746;-67
2021/06/08 06:51:34;;;;;;;8.43;5.30;;;;;;;;;;5136776;27;20301;-66
2021/06/08 06:54:02;;;;;;;7.47;5.67;;;;;;;;;;5134050;27;20196;-67
2021/06/08 06:56:29;;;;;;;7.07;5.97;;;;;;;;;;5133590;27;20207;-66
2021/06/08 06:58:58;;;;;;;6.90;5.60;;;;;;;;;;5132543;27;20203;-66
2021/06/08 07:01:26;;;;;;;7.73;5.50;;;;;;;;;;5139780;27;20249;-69
2021/06/08 07:03:57;;;;;;;8.60;6.00;;;;;;;;;;5130798;27;20192;-66
2021/06/08 07:06:25;;;;;;;6.67;5.47;;;;;;;;;;5131771;27;20608;-67
2021/06/08 07:08:53;;;;;;;8.53;5.97;;;;;;;;;;5138547;27;20204;-66
2021/06/08 07:11:21;;;;;;;7.40;6.47;;;;;;;;;;5141420;27;20591;-67
2021/06/08 07:13:49;;;;;;;6.53;5.63;;;;;;;;;;5141554;27;20227;-66
2021/06/08 07:16:17;;;;;;;11.37;6.63;;;;;;;;;;5141374;27;20287;-65
2021/06/08 07:18:46;;;;;;;7.27;5.83;;;;;;;;;;5141111;27;20204;-65
2021/06/08 07:21:16;;;;;;;7.10;5.80;;;;;;;;;;5134267;27;20312;-65
2021/06/08 07:23:43;;;;;;;8.67;6.67;;;;;;;;;;5141324;27;20235;-65
2021/06/08 07:26:13;;;;;;;7.17;6.43;;;;;;;;;;5141559;27;20227;-65
2021/06/08 07:28:41;;;;;;;9.10;5.97;;;;;;;;;;5141386;27;20204;-65
2021/06/08 07:31:09;;;;;;;8.43;6.30;;;;;;;;;;5135858;27;20232;-65
2021/06/08 07:33:41;;;;;;;10.70;6.70;;;;;;;;;;5139250;27;20208;-70
2021/06/08 07:36:15;;;;;;;9.60;6.50;;;;;;;;;;5133560;27;20197;-74
2021/06/08 07:38:47;;;;;;;11.33;6.53;;;;;;;;;;5132093;27;20728;-74
2021/06/08 07:41:16;;;;;;;8.57;6.73;;;;;;;;;;5134870;27;20232;-76
2021/06/08 07:43:47;;;;;;;9.30;6.57;;;;;;;;;;5140611;27;20229;-75
2021/06/08 07:46:16;;;;;;;8.83;6.50;;;;;;;;;;5140090;27;20756;-75
2021/06/08 07:48:45;;;;;;;9.53;6.87;;;;;;;;;;5140846;27;20566;-75
2021/06/08 07:51:13;;;;;;;7.27;6.53;;;;;;;;;;5141058;27;20740;-75
2021/06/08 07:53:40;;;;;;;9.00;6.53;;;;;;;;;;5141103;27;20212;-75
2021/06/08 07:56:10;;;;;;;9.77;7.47;;;;;;;;;;5138607;27;20574;-74
2021/06/08 07:58:38;;;;;;;8.03;7.03;;;;;;;;;;5140812;27;20203;-74
2021/06/08 08:01:06;;;;;;;8.93;6.20;;;;;;;;;;5140680;27;20230;-74
2021/06/08 08:03:33;;;;;;;11.53;7.27;;;;;;;;;;5140444;27;20279;-74
2021/06/08 08:06:03;;;;;;;8.27;7.30;;;;;;;;;;5133772;27;20308;-74
2021/06/08 08:08:31;;;;;;;12.53;7.60;;;;;;;;;;5140556;27;20215;-75
2021/06/08 08:10:59;;;;;;;8.93;6.77;;;;;;;;;;5139927;27;20785;-72
2021/06/08 08:13:29;;;;;;;9.93;7.17;;;;;;;;;;5136560;27;20207;-72
2021/06/08 08:16:03;;;;;;;8.00;6.57;;;;;;;;;;5140479;27;20207;-73
2021/06/08 08:18:32;;;;;;;8.93;6.57;;;;;;;;;;5139936;27;20207;-73
2021/06/08 08:21:00;;;;;;;10.87;6.77;;;;;;;;;;5139836;27;20834;-73
2021/06/08 08:23:29;;;;;;;15.90;6.90;;;;;;;;;;5140118;27;20230;-73
2021/06/08 08:25:57;;;;;;;13.47;7.50;;;;;;;;;;5138890;27;20287;-73
2021/06/08 08:28:26;;;;;;;10.17;7.07;;;;;;;;;;5139443;27;20211;-73
2021/06/08 08:30:55;;;;;;;8.53;7.13;;;;;;;;;;5139160;27;20227;-73
2021/06/08 08:33:24;;;;;;;9.23;7.67;;;;;;;;;;5138491;27;20200;-73
2021/06/08 08:35:51;;;;;;;9.90;7.73;;;;;;;;;;5139524;27;20655;-73
2021/06/08 08:38:19;;;;;;;10.67;8.17;;;;;;;;;;5139530;27;20570;-73
2021/06/08 08:40:47;;;;;;;9.23;7.30;;;;;;;;;;5137587;27;20561;-73
2021/06/08 08:43:30;;;;;;;11.10;7.77;;;;;;;;;;5139778;27;20239;-73
2021/06/08 08:45:59;;;;;;;8.40;6.57;;;;;;;;;;5139015;27;20204;-73
2021/06/08 08:48:27;;;;;;;11.57;7.80;;;;;;;;;;5138427;27;20292;-73
2021/06/08 08:50:55;;;;;;;8.90;7.37;;;;;;;;;;5139671;27;20243;-73
2021/06/08 08:53:23;;;;;;;9.07;7.73;;;;;;;;;;5138502;27;20200;-73
2021/06/08 08:55:50;;;;;;;10.30;7.50;;;;;;;;;;5137998;27;20311;-73
2021/06/08 08:58:18;;;;;;;9.93;7.67;;;;;;;;;;5138336;27;20575;-73
2021/06/08 09:00:45;;;;;;;11.80;9.27;;;;;;;;;;5137514;27;20196;-73
2021/06/08 09:03:15;;;;;;;13.87;7.30;;;;;;;;;;5137446;27;20233;-73
2021/06/08 09:05:44;;;;;;;9.10;7.80;;;;;;;;;;5139333;27;20642;-73
2021/06/08 09:08:11;;;;;;;11.40;7.10;;;;;;;;;;5138215;27;20281;-76
2021/06/08 09:10:40;;;;;;;10.80;7.03;;;;;;;;;;5138883;27;20689;-75
2021/06/08 09:13:07;;;;;;;11.60;8.00;;;;;;;;;;5125747;27;20226;-73
2021/06/08 09:15:36;;;;;;;9.30;7.20;;;;;;;;;;5137233;27;20227;-73
2021/06/08 09:18:03;;;;;;;10.47;7.07;;;;;;;;;;5139159;27;20257;-73
2021/06/08 09:20:32;;;;;;;11.77;6.47;;;;;;;;;;5138564;27;20201;-74
2021/06/08 09:23:02;;;;;;;9.80;7.70;;;;;;;;;;5139159;27;20273;-74
2021/06/08 09:25:54;;;;;;;9.20;7.00;;;;;;;;;;5125399;27;20235;-74
2021/06/08 09:28:23;;;;;;;8.97;6.07;;;;;;;;;;5108597;27;20568;-73
2021/06/08 09:30:54;;;;;;;8.97;7.37;;;;;;;;;;5137870;27;20561;-73
2021/06/08 09:33:22;;;;;;;7.73;5.97;;;;;;;;;;5131632;27;20202;-71
2021/06/08 09:35:52;;;;;;;6.70;5.57;;;;;;;;;;5131285;27;20208;-73
2021/06/08 09:38:21;;;;;;;6.20;5.60;;;;;;;;;;5134688;27;20210;-73
2021/06/08 09:40:48;;;;;;;9.70;5.77;;;;;;;;;;5138541;27;20217;-72
2021/06/08 09:43:18;;;;;;;7.20;5.83;;;;;;;;;;5136893;27;20232;-72
2021/06/08 09:45:46;;;;;;;7.33;5.50;;;;;;;;;;5131902;27;20204;-73
2021/06/08 09:48:14;;;;;;;6.73;4.90;;;;;;;;;;5131535;27;20192;-73
2021/06/08 09:50:42;;;;;;;7.17;5.63;;;;;;;;;;5135398;27;20282;-74
2021/06/08 09:53:18;;;;;;;9.03;5.63;;;;;;;;;;5137070;27;20217;-73
2021/06/08 09:55:53;;;;;;;7.70;5.70;;;;;;;;;;5137351;27;20209;-74
2021/06/08 09:58:21;;;;;;;7.07;5.23;;;;;;;;;;5136050;27;20212;-74
2021/06/08 10:01:08;;;;;;;7.73;5.30;;;;;;;;;;5137992;27;20221;-73
2021/06/08 10:03:36;;;;;;;7.80;5.73;;;;;;;;;;5137896;27;20585;-73
2021/06/08 10:06:07;;;;;;;6.40;5.37;;;;;;;;;;5131524;27;20264;-73
2021/06/08 10:08:38;;;;;;;9.47;6.00;;;;;;;;;;5123096;28;20342;-73
2021/06/08 10:11:17;;;;;;;7.97;5.93;;;;;;;;;;5137629;28;20210;-74
2021/06/08 10:13:45;;;;;;;6.87;5.47;;;;;;;;;;5137717;28;20200;-72
2021/06/08 10:16:22;;;;;;;7.83;5.10;;;;;;;;;;5131724;28;20204;-73
2021/06/08 10:18:50;;;;;;;6.63;5.90;;;;;;;;;;5132875;28;20206;-73
2021/06/08 10:21:32;;;;;;;9.40;5.83;;;;;;;;;;5131484;28;20301;-73
2021/06/08 10:24:04;;;;;;;7.17;6.17;;;;;;;;;;5137367;28;21027;-74
2021/06/08 10:26:35;;;;;;;8.97;5.67;;;;;;;;;;5135376;28;20289;-74
2021/06/08 10:29:04;;;;;;;7.03;5.67;;;;;;;;;;5128419;28;20276;-74
2021/06/08 10:31:32;;;;;;;6.77;5.67;;;;;;;;;;5136489;28;20312;-73
2021/06/08 10:34:03;;;;;;;9.83;7.17;;;;;;;;;;5136681;28;20210;-73
2021/06/08 10:36:32;;;;;;;8.57;6.43;;;;;;;;;;5137425;28;20655;-72
2021/06/08 10:39:00;;;;;;;8.90;7.47;;;;;;;;;;5135573;28;20725;-73
2021/06/08 10:41:32;;;;;;;10.87;6.73;;;;;;;;;;5137343;28;20231;-71
2021/06/08 10:44:01;;;;;;;9.77;6.97;;;;;;;;;;5132361;28;20252;-71
2021/06/08 10:46:30;;;;;;;11.53;7.17;;;;;;;;;;5133548;28;20197;-71
2021/06/08 10:48:57;;;;;;;8.13;6.67;;;;;;;;;;5137246;28;20261;-73
2021/06/08 10:51:26;;;;;;;7.93;6.30;;;;;;;;;;5136910;28;20216;-73
2021/06/08 10:53:54;;;;;;;10.00;7.60;;;;;;;;;;5135827;28;20199;-73
2021/06/08 10:56:23;;;;;;;9.57;6.43;;;;;;;;;;5136302;27;20556;-73
2021/06/08 10:58:53;;;;;;;10.00;6.73;;;;;;;;;;5138204;28;20283;-73
2021/06/08 11:01:54;;;;;;;8.53;7.07;;;;;;;;;;5137212;28;20640;-73
2021/06/08 11:04:24;;;;;;;7.17;5.87;;;;;;;;;;5128267;28;20198;-74
2021/06/08 11:06:53;;;;;;;9.90;6.47;;;;;;;;;;5136618;28;20582;-72
2021/06/08 11:09:34;;;;;;;8.10;6.20;;;;;;;;;;5138217;28;20215;-72
2021/06/08 11:12:03;;;;;;;9.07;6.73;;;;;;;;;;5131782;28;20227;-72
2021/06/08 11:15:00;;;;;;;8.17;6.47;;;;;;;;;;5136101;28;20201;-73
2021/06/08 11:17:32;;;;;;;11.40;7.23;;;;;;;;;;5065985;28;20208;-73
2021/06/08 11:20:01;;;;;;;11.63;7.37;;;;;;;;;;5127723;27;20208;-73
2021/06/08 11:22:47;;;;;;;8.80;7.17;;;;;;;;;;5140591;27;20233;-74
2021/06/08 11:25:29;;;;;;;8.93;7.30;;;;;;;;;;5138564;27;20252;-74
2021/06/08 11:27:57;;;;;;;11.00;7.77;;;;;;;;;;5138772;27;20209;-74
2021/06/08 11:30:25;;;;;;;8.47;7.10;;;;;;;;;;5140032;27;20228;-74
2021/06/08 11:32:55;;;;;;;11.27;7.23;;;;;;;;;;5140090;27;20215;-74
2021/06/08 11:35:23;;;;;;;10.63;7.10;;;;;;;;;;5139883;27;20208;-74
2021/06/08 11:37:55;;;;;;;9.33;7.47;;;;;;;;;;5139318;27;20203;-74
2021/06/08 11:40:53;;;;;;;9.10;7.73;;;;;;;;;;5139885;27;20204;-74
2021/06/08 11:43:47;;;;;;;10.10;7.43;;;;;;;;;;5127695;27;20231;-74
2021/06/08 11:46:15;;;;;;;10.13;7.43;;;;;;;;;;5076136;27;20201;-73
2021/06/08 11:48:45;;;;;;;10.60;8.07;;;;;;;;;;5140602;27;20200;-73
2021/06/08 11:51:34;;;;;;;10.77;7.50;;;;;;;;;;5139404;27;20229;-73
2021/06/08 11:54:03;;;;;;;10.43;8.10;;;;;;;;;;5138729;27;20207;-73
2021/06/08 11:56:49;;;;;;;9.97;7.33;;;;;;;;;;5138946;27;20642;-72
2021/06/08 11:59:18;;;;;;;8.87;7.93;;;;;;;;;;5141069;27;20207;-74
2021/06/08 12:01:48;;;;;;;11.73;7.60;;;;;;;;;;5139570;27;20222;-73
2021/06/08 12:04:17;;;;;;;8.13;7.10;;;;;;;;;;5139671;27;20200;-73
2021/06/08 12:07:04;;;;;;;6.97;6.03;;;;;;;;;;5139728;27;20208;-73
2021/06/08 12:09:33;;;;;;;11.00;7.13;;;;;;;;;;5138984;27;20282;-73
2021/06/08 12:12:09;;;;;;;12.70;7.20;;;;;;;;;;5135154;27;20688;-73
2021/06/08 12:14:37;;;;;;;9.57;7.17;;;;;;;;;;5135134;27;20533;-72
2021/06/08 12:17:04;;;;;;;7.37;6.53;;;;;;;;;;5138935;27;20212;-73
2021/06/08 12:19:35;;;;;;;9.90;6.37;;;;;;;;;;5140162;27;20329;-73
2021/06/08 12:22:03;;;;;;;8.23;6.00;;;;;;;;;;5138717;27;20353;-73
2021/06/08 12:24:31;;;;;;;6.33;4.93;;;;;;;;;;5137663;27;20202;-73
2021/06/08 12:27:00;;;;;;;6.57;5.40;;;;;;;;;;5138757;27;20200;-73
2021/06/08 12:29:28;;;;;;;7.17;5.30;;;;;;;;;;5136879;27;20206;-72
2021/06/08 12:31:56;;;;;;;7.17;5.27;;;;;;;;;;5137417;27;20239;-74
2021/06/08 12:34:25;;;;;;;7.17;5.20;;;;;;;;;;5139610;27;20235;-73
2021/06/08 12:36:55;;;;;;;6.17;4.80;;;;;;;;;;5138067;27;20201;-74
2021/06/08 12:39:27;;;;;;;8.20;5.53;;;;;;;;;;5140113;27;20258;-74
2021/06/08 12:42:08;;;;;;;7.67;5.80;;;;;;;;;;5138915;27;20626;-74
2021/06/08 12:44:36;;;;;;;7.97;5.77;;;;;;;;;;5139133;27;20299;-74
2021/06/08 12:47:04;;;;;;;6.03;5.13;;;;;;;;;;5139823;27;20239;-75
2021/06/08 12:49:36;;;;;;;6.70;5.57;;;;;;;;;;5139131;27;20201;-74
2021/06/08 12:52:06;;;;;;;8.20;4.77;;;;;;;;;;5139774;27;20225;-74
2021/06/08 12:54:35;;;;;;;5.53;4.93;;;;;;;;;;5138208;27;20214;-74
2021/06/08 12:57:03;;;;;;;9.73;4.90;;;;;;;;;;5138448;27;20220;-74
2021/06/08 12:59:33;;;;;;;5.43;4.63;;;;;;;;;;5139044;27;20284;-74
2021/06/08 13:02:01;;;;;;;5.27;4.40;;;;;;;;;;5137373;27;20212;-74
2021/06/08 13:04:30;;;;;;;7.87;4.87;;;;;;;;;;5128323;27;20686;-74
2021/06/08 13:06:59;;;;;;;5.43;4.43;;;;;;;;;;5137370;27;20287;-74
2021/06/08 13:09:28;;;;;;;4.73;4.03;;;;;;;;;;5139159;27;20291;-74
2021/06/08 13:12:06;;;;;;;6.93;4.93;;;;;;;;;;5138830;27;20215;-74
2021/06/08 13:14:34;;;;;;;6.20;4.40;;;;;;;;;;5138103;27;20287;-74
2021/06/08 13:17:29;;;;;;;5.03;4.47;;;;;;;;;;5137412;27;20232;-74
2021/06/08 13:19:56;;;;;;;13.37;5.87;;;;;;;;;;5077207;27;20206;-74
2021/06/08 13:22:26;;;;;;;8.60;4.63;;;;;;;;;;5138547;27;20232;-75
2021/06/08 13:24:56;;;;;;;8.57;4.70;;;;;;;;;;5137788;27;20211;-74
2021/06/08 13:27:25;;;;;;;4.97;4.27;;;;;;;;;;5134653;27;20210;-74
2021/06/08 13:29:53;;;;;;;5.27;3.83;;;;;;;;;;5137471;27;20247;-74
2021/06/08 13:32:25;;;;;;;6.37;3.83;;;;;;;;;;5137824;27;20216;-74
2021/06/08 13:35:05;;;;;;;6.57;4.50;;;;;;;;;;5138906;27;20737;-75
2021/06/08 13:37:44;;;;;;;8.20;4.40;;;;;;;;;;5138310;27;20230;-74
2021/06/08 13:40:15;;;;;;;7.07;3.97;;;;;;;;;;5136264;27;20310;-74
2021/06/08 13:42:43;;;;;;;12.53;4.53;;;;;;;;;;5139005;27;20243;-74
2021/06/08 13:45:11;;;;;;;4.30;3.73;;;;;;;;;;5138246;27;20199;-74
2021/06/08 13:47:39;;;;;;;10.83;4.97;;;;;;;;;;5138853;27;20237;-74
2021/06/08 13:50:20;;;;;;;4.77;3.57;;;;;;;;;;5137285;27;20212;-74
2021/06/08 13:53:01;;;;;;;6.37;3.87;;;;;;;;;;5139128;27;20283;-74
2021/06/08 13:55:30;;;;;;;3.53;3.13;;;;;;;;;;5127593;27;20245;-75
2021/06/08 14:01:06;;;;;;;7.60;4.13;;;;;;;;;;5127335;27;20206;-74
2021/06/08 14:03:34;;;;;;;4.67;3.67;;;;;;;;;;5136702;27;20224;-74
2021/06/08 14:06:09;;;;;;;6.77;4.20;;;;;;;;;;5139084;27;20200;-74
2021/06/08 14:08:36;;;;;;;5.00;3.90;;;;;;;;;;5138057;27;20200;-74
2021/06/08 14:11:05;;;;;;;5.97;4.00;;;;;;;;;;5138894;27;20202;-74
2021/06/08 14:13:35;;;;;;;4.73;3.93;;;;;;;;;;5123080;28;20201;-74
2021/06/08 14:16:05;;;;;;;3.47;3.17;;;;;;;;;;5138430;28;20212;-74
2021/06/08 14:18:32;;;;;;;5.37;3.70;;;;;;;;;;5138258;28;20655;-75
2021/06/08 14:21:00;;;;;;;3.60;3.30;;;;;;;;;;5139312;28;20694;-75
2021/06/08 14:23:27;;;;;;;4.10;3.70;;;;;;;;;;5137840;28;20219;-74
2021/06/08 14:25:55;;;;;;;5.10;3.17;;;;;;;;;;5138304;28;20573;-74
2021/06/08 14:28:24;;;;;;;4.03;3.17;;;;;;;;;;5136575;28;20205;-75
2021/06/08 14:30:51;;;;;;;3.50;3.20;;;;;;;;;;5137208;28;20238;-74
2021/06/08 14:33:19;;;;;;;7.07;3.30;;;;;;;;;;5137056;28;20209;-74
2021/06/08 14:35:46;;;;;;;7.33;3.40;;;;;;;;;;5136572;28;20290;-74
2021/06/08 14:38:14;;;;;;;5.20;3.10;;;;;;;;;;5136740;28;20834;-74
2021/06/08 14:40:41;;;;;;;4.50;3.20;;;;;;;;;;5136106;28;20199;-74
2021/06/08 14:43:09;;;;;;;4.33;3.50;;;;;;;;;;5137376;28;20237;-74
2021/06/08 14:45:38;;;;;;;3.23;2.90;;;;;;;;;;5139027;28;20237;-74
2021/06/08 14:48:06;;;;;;;4.93;3.70;;;;;;;;;;5138476;28;20212;-74
2021/06/08 14:50:33;;;;;;;5.43;3.30;;;;;;;;;;5139496;28;20209;-74
2021/06/08 14:53:01;;;;;;;3.87;3.53;;;;;;;;;;5137740;27;20227;-74
2021/06/08 14:55:28;;;;;;;3.77;3.10;;;;;;;;;;5143013;27;20273;-75
2021/06/08 14:57:55;;;;;;;4.67;3.17;;;;;;;;;;5144949;27;20203;-75